sensor_id;sensor_type;location;lat;lon;timestamp;P1;durP1;ratioP1;P2;durP2;ratioP2
53931;SDS011;39844;52.496;13.482;2023-09-30T00:02:22;2.57;;;1.00;;
53931;SDS011;39844;52.496;13.482;2023-09-30T00:04:48;4.47;;;0.90;;
53931;SDS011;39844;52.496;13.482;2023-09-30T00:07:13;2.23;;;0.80;;
53931;SDS011;39844;52.496;13.482;2023-09-30T00:09:38;3.13;;;0.90;;
53931;SDS011;39844;52.496;13.482;2023-09-30T00:12:04;0.93;;;0.73;;
53931;SDS011;39844;52.496;13.482;2023-09-30T00:14:29;2.97;;;1.20;;
53931;SDS011;39844;52.496;13.482;2023-09-30T00:16:54;2.07;;;1.00;;
53931;SDS011;39844;52.496;13.482;2023-09-30T00:19:20;5.93;;;0.97;;
53931;SDS011;39844;52.496;13.482;2023-09-30T00:21:45;4.93;;;1.30;;
53931;SDS011;39844;52.496;13.482;2023-09-30T00:24:11;3.00;;;1.30;;
53931;SDS011;39844;52.496;13.482;2023-09-30T00:26:36;4.63;;;1.27;;
53931;SDS011;39844;52.496;13.482;2023-09-30T00:29:01;2.47;;;1.17;;
53931;SDS011;39844;52.496;13.482;2023-09-30T00:31:27;4.27;;;1.10;;
53931;SDS011;39844;52.496;13.482;2023-09-30T00:33:52;3.57;;;1.50;;
53931;SDS011;39844;52.496;13.482;2023-09-30T00:36:17;2.37;;;1.10;;
53931;SDS011;39844;52.496;13.482;2023-09-30T00:38:42;6.60;;;1.60;;
53931;SDS011;39844;52.496;13.482;2023-09-30T00:41:08;1.67;;;1.30;;
53931;SDS011;39844;52.496;13.482;2023-09-30T00:43:33;3.37;;;1.60;;
53931;SDS011;39844;52.496;13.482;2023-09-30T00:46:06;4.10;;;1.60;;
53931;SDS011;39844;52.496;13.482;2023-09-30T00:49:04;3.87;;;1.57;;
53931;SDS011;39844;52.496;13.482;2023-09-30T00:51:29;3.00;;;1.23;;
53931;SDS011;39844;52.496;13.482;2023-09-30T00:53:56;6.07;;;1.70;;
53931;SDS011;39844;52.496;13.482;2023-09-30T00:56:24;4.13;;;1.30;;
53931;SDS011;39844;52.496;13.482;2023-09-30T00:58:52;6.17;;;1.57;;
53931;SDS011;39844;52.496;13.482;2023-09-30T01:01:20;4.30;;;1.57;;
53931;SDS011;39844;52.496;13.482;2023-09-30T01:03:49;2.43;;;1.10;;
53931;SDS011;39844;52.496;13.482;2023-09-30T01:06:14;2.30;;;1.40;;
53931;SDS011;39844;52.496;13.482;2023-09-30T01:08:40;3.23;;;1.80;;
53931;SDS011;39844;52.496;13.482;2023-09-30T01:11:06;2.20;;;1.43;;
53931;SDS011;39844;52.496;13.482;2023-09-30T01:13:32;4.57;;;1.20;;
53931;SDS011;39844;52.496;13.482;2023-09-30T01:16:05;2.73;;;1.33;;
53931;SDS011;39844;52.496;13.482;2023-09-30T01:18:31;7.83;;;1.57;;
53931;SDS011;39844;52.496;13.482;2023-09-30T01:20:57;2.93;;;1.30;;
53931;SDS011;39844;52.496;13.482;2023-09-30T01:23:25;5.10;;;1.70;;
53931;SDS011;39844;52.496;13.482;2023-09-30T01:25:51;2.73;;;1.53;;
53931;SDS011;39844;52.496;13.482;2023-09-30T01:28:16;3.73;;;1.47;;
53931;SDS011;39844;52.496;13.482;2023-09-30T01:30:41;6.93;;;1.77;;
53931;SDS011;39844;52.496;13.482;2023-09-30T01:33:07;5.03;;;1.60;;
53931;SDS011;39844;52.496;13.482;2023-09-30T01:35:32;3.70;;;1.50;;
53931;SDS011;39844;52.496;13.482;2023-09-30T01:37:57;5.57;;;1.77;;
53931;SDS011;39844;52.496;13.482;2023-09-30T01:40:22;3.20;;;1.70;;
53931;SDS011;39844;52.496;13.482;2023-09-30T01:42:48;4.47;;;1.20;;
53931;SDS011;39844;52.496;13.482;2023-09-30T01:45:13;4.37;;;1.53;;
53931;SDS011;39844;52.496;13.482;2023-09-30T01:47:39;3.47;;;1.80;;
53931;SDS011;39844;52.496;13.482;2023-09-30T01:50:04;4.97;;;1.33;;
53931;SDS011;39844;52.496;13.482;2023-09-30T01:52:30;3.83;;;1.10;;
53931;SDS011;39844;52.496;13.482;2023-09-30T01:54:55;3.47;;;1.30;;
53931;SDS011;39844;52.496;13.482;2023-09-30T01:57:20;4.37;;;1.63;;
53931;SDS011;39844;52.496;13.482;2023-09-30T01:59:46;4.67;;;1.60;;
53931;SDS011;39844;52.496;13.482;2023-09-30T02:02:11;7.10;;;2.10;;
53931;SDS011;39844;52.496;13.482;2023-09-30T02:04:36;7.90;;;1.90;;
53931;SDS011;39844;52.496;13.482;2023-09-30T02:07:01;6.97;;;1.53;;
53931;SDS011;39844;52.496;13.482;2023-09-30T02:09:27;7.97;;;1.90;;
53931;SDS011;39844;52.496;13.482;2023-09-30T02:11:52;5.30;;;1.63;;
53931;SDS011;39844;52.496;13.482;2023-09-30T02:14:17;3.67;;;1.43;;
53931;SDS011;39844;52.496;13.482;2023-09-30T02:16:43;4.23;;;1.23;;
53931;SDS011;39844;52.496;13.482;2023-09-30T02:19:08;5.47;;;1.60;;
53931;SDS011;39844;52.496;13.482;2023-09-30T02:21:33;2.47;;;1.37;;
53931;SDS011;39844;52.496;13.482;2023-09-30T02:23:59;6.33;;;1.60;;
53931;SDS011;39844;52.496;13.482;2023-09-30T02:26:24;3.73;;;1.30;;
53931;SDS011;39844;52.496;13.482;2023-09-30T02:28:49;4.90;;;1.60;;
53931;SDS011;39844;52.496;13.482;2023-09-30T02:31:14;8.23;;;2.10;;
53931;SDS011;39844;52.496;13.482;2023-09-30T02:33:40;3.23;;;1.40;;
53931;SDS011;39844;52.496;13.482;2023-09-30T02:36:08;5.43;;;1.87;;
53931;SDS011;39844;52.496;13.482;2023-09-30T02:38:33;5.23;;;1.30;;
53931;SDS011;39844;52.496;13.482;2023-09-30T02:40:59;9.77;;;1.93;;
53931;SDS011;39844;52.496;13.482;2023-09-30T02:43:24;4.97;;;2.00;;
53931;SDS011;39844;52.496;13.482;2023-09-30T02:45:49;3.97;;;1.40;;
53931;SDS011;39844;52.496;13.482;2023-09-30T02:48:15;4.63;;;1.50;;
53931;SDS011;39844;52.496;13.482;2023-09-30T02:50:43;5.27;;;1.60;;
53931;SDS011;39844;52.496;13.482;2023-09-30T02:53:09;4.77;;;1.90;;
53931;SDS011;39844;52.496;13.482;2023-09-30T02:55:34;3.63;;;1.60;;
53931;SDS011;39844;52.496;13.482;2023-09-30T02:57:59;6.77;;;1.60;;
53931;SDS011;39844;52.496;13.482;2023-09-30T03:00:24;5.30;;;1.70;;
53931;SDS011;39844;52.496;13.482;2023-09-30T03:02:50;3.33;;;1.53;;
53931;SDS011;39844;52.496;13.482;2023-09-30T03:05:16;5.00;;;1.80;;
53931;SDS011;39844;52.496;13.482;2023-09-30T03:07:42;3.00;;;1.63;;
53931;SDS011;39844;52.496;13.482;2023-09-30T03:10:07;5.33;;;1.77;;
53931;SDS011;39844;52.496;13.482;2023-09-30T03:12:33;6.73;;;1.87;;
53931;SDS011;39844;52.496;13.482;2023-09-30T03:14:58;7.50;;;1.53;;
53931;SDS011;39844;52.496;13.482;2023-09-30T03:17:24;4.00;;;1.67;;
53931;SDS011;39844;52.496;13.482;2023-09-30T03:19:49;3.33;;;1.60;;
53931;SDS011;39844;52.496;13.482;2023-09-30T03:22:14;6.47;;;2.20;;
53931;SDS011;39844;52.496;13.482;2023-09-30T03:24:40;3.17;;;1.53;;
53931;SDS011;39844;52.496;13.482;2023-09-30T03:27:05;4.20;;;1.87;;
53931;SDS011;39844;52.496;13.482;2023-09-30T03:29:30;9.67;;;1.90;;
53931;SDS011;39844;52.496;13.482;2023-09-30T03:32:00;6.33;;;2.00;;
53931;SDS011;39844;52.496;13.482;2023-09-30T03:34:25;5.97;;;1.83;;
53931;SDS011;39844;52.496;13.482;2023-09-30T03:36:50;6.87;;;1.83;;
53931;SDS011;39844;52.496;13.482;2023-09-30T03:39:15;8.57;;;1.90;;
53931;SDS011;39844;52.496;13.482;2023-09-30T03:41:41;7.00;;;2.00;;
53931;SDS011;39844;52.496;13.482;2023-09-30T03:44:06;4.10;;;1.60;;
53931;SDS011;39844;52.496;13.482;2023-09-30T03:46:34;9.60;;;2.23;;
53931;SDS011;39844;52.496;13.482;2023-09-30T03:48:59;11.50;;;2.70;;
53931;SDS011;39844;52.496;13.482;2023-09-30T03:51:24;7.17;;;1.90;;
53931;SDS011;39844;52.496;13.482;2023-09-30T03:53:50;6.27;;;2.10;;
53931;SDS011;39844;52.496;13.482;2023-09-30T03:56:15;6.07;;;2.13;;
53931;SDS011;39844;52.496;13.482;2023-09-30T03:58:41;7.70;;;2.07;;
53931;SDS011;39844;52.496;13.482;2023-09-30T04:01:08;6.33;;;1.87;;
53931;SDS011;39844;52.496;13.482;2023-09-30T04:03:34;5.03;;;1.73;;
53931;SDS011;39844;52.496;13.482;2023-09-30T04:05:59;5.17;;;1.93;;
53931;SDS011;39844;52.496;13.482;2023-09-30T04:08:25;5.53;;;2.17;;
53931;SDS011;39844;52.496;13.482;2023-09-30T04:10:51;3.77;;;1.60;;
53931;SDS011;39844;52.496;13.482;2023-09-30T04:13:16;4.83;;;1.80;;
53931;SDS011;39844;52.496;13.482;2023-09-30T04:15:41;3.10;;;1.80;;
53931;SDS011;39844;52.496;13.482;2023-09-30T04:18:07;4.37;;;1.73;;
53931;SDS011;39844;52.496;13.482;2023-09-30T04:20:32;3.73;;;2.10;;
53931;SDS011;39844;52.496;13.482;2023-09-30T04:22:57;6.83;;;1.87;;
53931;SDS011;39844;52.496;13.482;2023-09-30T04:25:23;7.27;;;2.20;;
53931;SDS011;39844;52.496;13.482;2023-09-30T04:27:49;4.30;;;1.67;;
53931;SDS011;39844;52.496;13.482;2023-09-30T04:30:14;10.37;;;2.20;;
53931;SDS011;39844;52.496;13.482;2023-09-30T04:32:40;2.80;;;1.60;;
53931;SDS011;39844;52.496;13.482;2023-09-30T04:35:06;3.63;;;1.83;;
53931;SDS011;39844;52.496;13.482;2023-09-30T04:37:32;5.87;;;1.70;;
53931;SDS011;39844;52.496;13.482;2023-09-30T04:39:57;7.23;;;2.50;;
53931;SDS011;39844;52.496;13.482;2023-09-30T04:42:22;4.63;;;1.73;;
53931;SDS011;39844;52.496;13.482;2023-09-30T04:44:48;2.93;;;1.60;;
53931;SDS011;39844;52.496;13.482;2023-09-30T04:47:13;5.00;;;1.60;;
53931;SDS011;39844;52.496;13.482;2023-09-30T04:49:38;7.63;;;1.97;;
53931;SDS011;39844;52.496;13.482;2023-09-30T04:52:03;5.43;;;2.30;;
53931;SDS011;39844;52.496;13.482;2023-09-30T04:54:29;6.23;;;1.40;;
53931;SDS011;39844;52.496;13.482;2023-09-30T04:56:54;5.83;;;1.93;;
53931;SDS011;39844;52.496;13.482;2023-09-30T04:59:19;6.13;;;2.07;;
53931;SDS011;39844;52.496;13.482;2023-09-30T05:01:45;7.23;;;1.77;;
53931;SDS011;39844;52.496;13.482;2023-09-30T05:04:10;6.13;;;2.00;;
53931;SDS011;39844;52.496;13.482;2023-09-30T05:06:35;4.80;;;1.90;;
53931;SDS011;39844;52.496;13.482;2023-09-30T05:09:01;9.23;;;2.10;;
53931;SDS011;39844;52.496;13.482;2023-09-30T05:11:26;4.00;;;1.80;;
53931;SDS011;39844;52.496;13.482;2023-09-30T05:13:51;7.53;;;1.50;;
53931;SDS011;39844;52.496;13.482;2023-09-30T05:16:17;6.00;;;2.13;;
53931;SDS011;39844;52.496;13.482;2023-09-30T05:18:43;6.77;;;1.80;;
53931;SDS011;39844;52.496;13.482;2023-09-30T05:21:08;5.83;;;2.83;;
53931;SDS011;39844;52.496;13.482;2023-09-30T05:23:33;3.57;;;1.70;;
53931;SDS011;39844;52.496;13.482;2023-09-30T05:25:59;2.97;;;2.00;;
53931;SDS011;39844;52.496;13.482;2023-09-30T05:28:24;7.33;;;1.90;;
53931;SDS011;39844;52.496;13.482;2023-09-30T05:30:49;5.57;;;1.80;;
53931;SDS011;39844;52.496;13.482;2023-09-30T05:33:14;5.30;;;1.77;;
53931;SDS011;39844;52.496;13.482;2023-09-30T05:35:40;4.37;;;1.97;;
53931;SDS011;39844;52.496;13.482;2023-09-30T05:38:06;5.60;;;2.10;;
53931;SDS011;39844;52.496;13.482;2023-09-30T05:40:32;5.77;;;2.17;;
53931;SDS011;39844;52.496;13.482;2023-09-30T05:42:57;9.10;;;1.90;;
53931;SDS011;39844;52.496;13.482;2023-09-30T05:45:23;3.83;;;1.90;;
53931;SDS011;39844;52.496;13.482;2023-09-30T05:47:49;6.90;;;1.67;;
53931;SDS011;39844;52.496;13.482;2023-09-30T05:50:15;6.77;;;1.60;;
53931;SDS011;39844;52.496;13.482;2023-09-30T05:52:40;5.00;;;1.60;;
53931;SDS011;39844;52.496;13.482;2023-09-30T05:55:06;7.53;;;2.23;;
53931;SDS011;39844;52.496;13.482;2023-09-30T05:57:31;5.37;;;1.70;;
53931;SDS011;39844;52.496;13.482;2023-09-30T05:59:57;3.57;;;1.73;;
53931;SDS011;39844;52.496;13.482;2023-09-30T06:02:22;7.20;;;2.10;;
53931;SDS011;39844;52.496;13.482;2023-09-30T06:04:47;5.93;;;2.10;;
53931;SDS011;39844;52.496;13.482;2023-09-30T06:07:12;3.83;;;1.50;;
53931;SDS011;39844;52.496;13.482;2023-09-30T06:09:38;8.37;;;2.10;;
53931;SDS011;39844;52.496;13.482;2023-09-30T06:12:03;5.03;;;2.03;;
53931;SDS011;39844;52.496;13.482;2023-09-30T06:14:29;8.63;;;1.63;;
53931;SDS011;39844;52.496;13.482;2023-09-30T06:16:54;8.30;;;2.03;;
53931;SDS011;39844;52.496;13.482;2023-09-30T06:19:19;2.90;;;1.80;;
53931;SDS011;39844;52.496;13.482;2023-09-30T06:21:44;7.17;;;1.70;;
53931;SDS011;39844;52.496;13.482;2023-09-30T06:24:10;2.80;;;1.83;;
53931;SDS011;39844;52.496;13.482;2023-09-30T06:26:35;7.40;;;1.83;;
53931;SDS011;39844;52.496;13.482;2023-09-30T06:29:00;4.73;;;2.17;;
53931;SDS011;39844;52.496;13.482;2023-09-30T06:31:25;5.03;;;1.60;;
53931;SDS011;39844;52.496;13.482;2023-09-30T06:33:51;4.73;;;2.03;;
53931;SDS011;39844;52.496;13.482;2023-09-30T06:36:16;4.27;;;2.00;;
53931;SDS011;39844;52.496;13.482;2023-09-30T06:38:42;6.53;;;1.90;;
53931;SDS011;39844;52.496;13.482;2023-09-30T06:41:09;3.77;;;1.70;;
53931;SDS011;39844;52.496;13.482;2023-09-30T06:43:40;3.70;;;1.70;;
53931;SDS011;39844;52.496;13.482;2023-09-30T06:46:06;6.97;;;2.20;;
53931;SDS011;39844;52.496;13.482;2023-09-30T06:48:32;6.03;;;2.00;;
53931;SDS011;39844;52.496;13.482;2023-09-30T06:50:57;2.50;;;1.80;;
53931;SDS011;39844;52.496;13.482;2023-09-30T06:53:22;8.70;;;2.00;;
53931;SDS011;39844;52.496;13.482;2023-09-30T06:55:47;5.40;;;1.90;;
53931;SDS011;39844;52.496;13.482;2023-09-30T06:58:13;9.83;;;1.60;;
53931;SDS011;39844;52.496;13.482;2023-09-30T07:00:38;6.33;;;1.77;;
53931;SDS011;39844;52.496;13.482;2023-09-30T07:03:06;3.13;;;1.70;;
53931;SDS011;39844;52.496;13.482;2023-09-30T07:05:31;6.87;;;1.90;;
53931;SDS011;39844;52.496;13.482;2023-09-30T07:07:56;3.83;;;1.77;;
53931;SDS011;39844;52.496;13.482;2023-09-30T07:10:22;7.43;;;2.17;;
53931;SDS011;39844;52.496;13.482;2023-09-30T07:12:47;5.13;;;1.70;;
53931;SDS011;39844;52.496;13.482;2023-09-30T07:15:13;7.13;;;2.10;;
53931;SDS011;39844;52.496;13.482;2023-09-30T07:17:38;5.10;;;2.20;;
53931;SDS011;39844;52.496;13.482;2023-09-30T07:20:04;5.87;;;1.97;;
53931;SDS011;39844;52.496;13.482;2023-09-30T07:22:30;2.77;;;1.40;;
53931;SDS011;39844;52.496;13.482;2023-09-30T07:24:55;5.87;;;1.83;;
53931;SDS011;39844;52.496;13.482;2023-09-30T07:27:21;8.07;;;2.00;;
53931;SDS011;39844;52.496;13.482;2023-09-30T07:29:46;4.13;;;1.77;;
53931;SDS011;39844;52.496;13.482;2023-09-30T07:32:11;4.57;;;1.63;;
53931;SDS011;39844;52.496;13.482;2023-09-30T07:34:37;3.47;;;1.80;;
53931;SDS011;39844;52.496;13.482;2023-09-30T07:37:02;10.40;;;1.97;;
53931;SDS011;39844;52.496;13.482;2023-09-30T07:39:28;4.23;;;1.87;;
53931;SDS011;39844;52.496;13.482;2023-09-30T07:41:54;3.60;;;1.60;;
53931;SDS011;39844;52.496;13.482;2023-09-30T07:44:19;8.30;;;2.30;;
53931;SDS011;39844;52.496;13.482;2023-09-30T07:46:45;5.20;;;2.00;;
53931;SDS011;39844;52.496;13.482;2023-09-30T07:49:10;4.77;;;1.63;;
53931;SDS011;39844;52.496;13.482;2023-09-30T07:51:35;2.43;;;1.77;;
53931;SDS011;39844;52.496;13.482;2023-09-30T07:54:01;8.10;;;2.00;;
53931;SDS011;39844;52.496;13.482;2023-09-30T07:56:28;10.90;;;1.53;;
53931;SDS011;39844;52.496;13.482;2023-09-30T07:58:53;9.47;;;2.00;;
53931;SDS011;39844;52.496;13.482;2023-09-30T08:01:18;5.27;;;1.67;;
53931;SDS011;39844;52.496;13.482;2023-09-30T08:03:44;10.10;;;2.30;;
53931;SDS011;39844;52.496;13.482;2023-09-30T08:06:09;8.60;;;1.90;;
53931;SDS011;39844;52.496;13.482;2023-09-30T08:08:35;6.83;;;2.10;;
53931;SDS011;39844;52.496;13.482;2023-09-30T08:11:01;7.27;;;1.67;;
53931;SDS011;39844;52.496;13.482;2023-09-30T08:13:28;7.20;;;1.97;;
53931;SDS011;39844;52.496;13.482;2023-09-30T08:15:54;3.07;;;1.83;;
53931;SDS011;39844;52.496;13.482;2023-09-30T08:18:19;4.83;;;2.23;;
53931;SDS011;39844;52.496;13.482;2023-09-30T08:20:44;5.13;;;1.67;;
53931;SDS011;39844;52.496;13.482;2023-09-30T08:23:10;5.47;;;2.00;;
53931;SDS011;39844;52.496;13.482;2023-09-30T08:25:35;6.93;;;1.87;;
53931;SDS011;39844;52.496;13.482;2023-09-30T08:28:00;3.93;;;1.80;;
53931;SDS011;39844;52.496;13.482;2023-09-30T08:30:25;7.53;;;2.03;;
53931;SDS011;39844;52.496;13.482;2023-09-30T08:32:51;3.33;;;1.43;;
53931;SDS011;39844;52.496;13.482;2023-09-30T08:35:16;8.70;;;2.27;;
53931;SDS011;39844;52.496;13.482;2023-09-30T08:37:41;7.33;;;2.40;;
53931;SDS011;39844;52.496;13.482;2023-09-30T08:40:07;5.33;;;1.60;;
53931;SDS011;39844;52.496;13.482;2023-09-30T08:42:33;7.67;;;1.60;;
53931;SDS011;39844;52.496;13.482;2023-09-30T08:44:58;9.57;;;1.97;;
53931;SDS011;39844;52.496;13.482;2023-09-30T08:47:25;7.67;;;1.73;;
53931;SDS011;39844;52.496;13.482;2023-09-30T08:49:51;4.23;;;1.63;;
53931;SDS011;39844;52.496;13.482;2023-09-30T08:52:18;4.60;;;1.57;;
53931;SDS011;39844;52.496;13.482;2023-09-30T08:54:44;5.17;;;1.67;;
53931;SDS011;39844;52.496;13.482;2023-09-30T08:57:09;9.33;;;1.93;;
53931;SDS011;39844;52.496;13.482;2023-09-30T08:59:35;4.57;;;1.67;;
53931;SDS011;39844;52.496;13.482;2023-09-30T09:02:00;7.07;;;1.73;;
53931;SDS011;39844;52.496;13.482;2023-09-30T09:04:25;6.17;;;1.80;;
53931;SDS011;39844;52.496;13.482;2023-09-30T09:06:52;3.50;;;1.87;;
53931;SDS011;39844;52.496;13.482;2023-09-30T09:09:19;3.27;;;1.60;;
53931;SDS011;39844;52.496;13.482;2023-09-30T09:11:44;4.93;;;1.77;;
53931;SDS011;39844;52.496;13.482;2023-09-30T09:14:10;2.83;;;1.60;;
53931;SDS011;39844;52.496;13.482;2023-09-30T09:16:36;4.50;;;1.73;;
53931;SDS011;39844;52.496;13.482;2023-09-30T09:19:14;4.10;;;1.77;;
53931;SDS011;39844;52.496;13.482;2023-09-30T09:21:39;7.50;;;1.80;;
53931;SDS011;39844;52.496;13.482;2023-09-30T09:27:03;5.20;;;1.73;;
53931;SDS011;39844;52.496;13.482;2023-09-30T09:29:29;5.17;;;1.90;;
53931;SDS011;39844;52.496;13.482;2023-09-30T09:32:05;6.37;;;1.60;;
53931;SDS011;39844;52.496;13.482;2023-09-30T09:34:39;6.83;;;1.60;;
53931;SDS011;39844;52.496;13.482;2023-09-30T09:37:12;3.03;;;1.67;;
53931;SDS011;39844;52.496;13.482;2023-09-30T09:39:51;3.50;;;1.50;;
53931;SDS011;39844;52.496;13.482;2023-09-30T09:42:26;3.90;;;1.30;;
53931;SDS011;39844;52.496;13.482;2023-09-30T09:45:02;10.53;;;1.90;;
53931;SDS011;39844;52.496;13.482;2023-09-30T09:47:29;3.20;;;1.63;;
53931;SDS011;39844;52.496;13.482;2023-09-30T09:49:56;9.80;;;1.57;;
53931;SDS011;39844;52.496;13.482;2023-09-30T09:52:23;2.87;;;1.33;;
53931;SDS011;39844;52.496;13.482;2023-09-30T09:54:50;5.03;;;1.87;;
53931;SDS011;39844;52.496;13.482;2023-09-30T09:57:16;6.67;;;1.57;;
53931;SDS011;39844;52.496;13.482;2023-09-30T09:59:43;4.50;;;1.83;;
53931;SDS011;39844;52.496;13.482;2023-09-30T10:02:12;7.80;;;1.50;;
53931;SDS011;39844;52.496;13.482;2023-09-30T10:04:38;4.20;;;1.57;;
53931;SDS011;39844;52.496;13.482;2023-09-30T10:07:03;6.60;;;1.57;;
53931;SDS011;39844;52.496;13.482;2023-09-30T10:09:30;6.07;;;1.40;;
53931;SDS011;39844;52.496;13.482;2023-09-30T10:12:00;2.53;;;1.13;;
53931;SDS011;39844;52.496;13.482;2023-09-30T10:14:29;5.27;;;1.37;;
53931;SDS011;39844;52.496;13.482;2023-09-30T10:16:58;9.30;;;1.63;;
53931;SDS011;39844;52.496;13.482;2023-09-30T10:19:24;4.70;;;1.63;;
53931;SDS011;39844;52.496;13.482;2023-09-30T10:24:42;4.70;;;1.30;;
53931;SDS011;39844;52.496;13.482;2023-09-30T10:29:58;4.07;;;1.40;;
53931;SDS011;39844;52.496;13.482;2023-09-30T10:33:04;3.93;;;1.50;;
53931;SDS011;39844;52.496;13.482;2023-09-30T10:35:18;6.70;;;1.80;;
53931;SDS011;39844;52.496;13.482;2023-09-30T10:40:47;6.83;;;1.37;;
53931;SDS011;39844;52.496;13.482;2023-09-30T10:45:55;4.87;;;1.33;;
53931;SDS011;39844;52.496;13.482;2023-09-30T10:53:23;3.90;;;1.37;;
53931;SDS011;39844;52.496;13.482;2023-09-30T10:55:53;2.93;;;1.40;;
53931;SDS011;39844;52.496;13.482;2023-09-30T10:58:20;1.93;;;1.10;;
53931;SDS011;39844;52.496;13.482;2023-09-30T11:00:55;9.07;;;1.63;;
53931;SDS011;39844;52.496;13.482;2023-09-30T11:03:21;3.90;;;1.13;;
53931;SDS011;39844;52.496;13.482;2023-09-30T11:05:50;3.83;;;1.57;;
53931;SDS011;39844;52.496;13.482;2023-09-30T11:08:16;3.30;;;1.20;;
53931;SDS011;39844;52.496;13.482;2023-09-30T11:10:48;4.93;;;1.50;;
53931;SDS011;39844;52.496;13.482;2023-09-30T11:13:17;5.87;;;1.27;;
53931;SDS011;39844;52.496;13.482;2023-09-30T11:15:43;3.80;;;1.00;;
53931;SDS011;39844;52.496;13.482;2023-09-30T11:18:15;3.20;;;1.47;;
53931;SDS011;39844;52.496;13.482;2023-09-30T11:20:42;8.43;;;1.63;;
53931;SDS011;39844;52.496;13.482;2023-09-30T11:23:09;6.10;;;1.43;;
53931;SDS011;39844;52.496;13.482;2023-09-30T11:25:35;3.03;;;1.10;;
53931;SDS011;39844;52.496;13.482;2023-09-30T11:28:16;2.57;;;1.50;;
53931;SDS011;39844;52.496;13.482;2023-09-30T11:31:01;7.40;;;1.70;;
53931;SDS011;39844;52.496;13.482;2023-09-30T11:33:27;4.30;;;1.40;;
53931;SDS011;39844;52.496;13.482;2023-09-30T11:36:00;2.53;;;1.30;;
53931;SDS011;39844;52.496;13.482;2023-09-30T11:38:29;4.67;;;1.30;;
53931;SDS011;39844;52.496;13.482;2023-09-30T11:41:02;1.77;;;0.93;;
53931;SDS011;39844;52.496;13.482;2023-09-30T11:43:28;3.60;;;1.43;;
53931;SDS011;39844;52.496;13.482;2023-09-30T11:46:03;7.93;;;1.50;;
53931;SDS011;39844;52.496;13.482;2023-09-30T11:48:29;2.93;;;1.13;;
53931;SDS011;39844;52.496;13.482;2023-09-30T11:50:54;4.30;;;1.17;;
53931;SDS011;39844;52.496;13.482;2023-09-30T11:53:19;2.17;;;1.10;;
53931;SDS011;39844;52.496;13.482;2023-09-30T11:55:45;5.97;;;1.23;;
53931;SDS011;39844;52.496;13.482;2023-09-30T11:58:10;4.25;;;1.20;;
53931;SDS011;39844;52.496;13.482;2023-09-30T12:00:35;5.40;;;1.40;;
53931;SDS011;39844;52.496;13.482;2023-09-30T12:03:00;1.60;;;1.40;;
53931;SDS011;39844;52.496;13.482;2023-09-30T12:05:26;3.17;;;1.05;;
53931;SDS011;39844;52.496;13.482;2023-09-30T12:07:51;3.95;;;1.17;;
53931;SDS011;39844;52.496;13.482;2023-09-30T12:10:16;2.33;;;1.05;;
53931;SDS011;39844;52.496;13.482;2023-09-30T12:12:42;2.58;;;1.05;;
53931;SDS011;39844;52.496;13.482;2023-09-30T12:15:07;2.42;;;1.15;;
53931;SDS011;39844;52.496;13.482;2023-09-30T12:17:33;4.00;;;1.00;;
53931;SDS011;39844;52.496;13.482;2023-09-30T12:19:58;1.77;;;0.95;;
53931;SDS011;39844;52.496;13.482;2023-09-30T12:22:23;3.22;;;1.02;;
53931;SDS011;39844;52.496;13.482;2023-09-30T12:24:49;1.98;;;1.05;;
53931;SDS011;39844;52.496;13.482;2023-09-30T12:27:14;3.25;;;1.17;;
53931;SDS011;39844;52.496;13.482;2023-09-30T12:29:39;7.07;;;1.45;;
53931;SDS011;39844;52.496;13.482;2023-09-30T12:32:04;4.50;;;1.38;;
53931;SDS011;39844;52.496;13.482;2023-09-30T12:34:30;3.22;;;1.17;;
53931;SDS011;39844;52.496;13.482;2023-09-30T12:36:55;1.58;;;1.02;;
53931;SDS011;39844;52.496;13.482;2023-09-30T12:39:20;3.53;;;1.10;;
53931;SDS011;39844;52.496;13.482;2023-09-30T12:41:45;2.22;;;1.25;;
53931;SDS011;39844;52.496;13.482;2023-09-30T12:44:11;2.58;;;1.20;;
53931;SDS011;39844;52.496;13.482;2023-09-30T12:46:36;3.08;;;1.10;;
53931;SDS011;39844;52.496;13.482;2023-09-30T12:49:02;2.13;;;0.93;;
53931;SDS011;39844;52.496;13.482;2023-09-30T12:51:36;4.60;;;1.30;;
53931;SDS011;39844;52.496;13.482;2023-09-30T12:54:02;3.00;;;1.23;;
53931;SDS011;39844;52.496;13.482;2023-09-30T12:56:27;2.13;;;1.27;;
53931;SDS011;39844;52.496;13.482;2023-09-30T12:58:53;1.52;;;1.00;;
53931;SDS011;39844;52.496;13.482;2023-09-30T13:01:18;3.42;;;1.23;;
53931;SDS011;39844;52.496;13.482;2023-09-30T13:03:44;2.53;;;1.27;;
53931;SDS011;39844;52.496;13.482;2023-09-30T13:06:09;4.32;;;1.20;;
53931;SDS011;39844;52.496;13.482;2023-09-30T13:08:35;2.38;;;1.27;;
53931;SDS011;39844;52.496;13.482;2023-09-30T13:11:00;4.38;;;1.40;;
53931;SDS011;39844;52.496;13.482;2023-09-30T13:13:26;2.80;;;1.23;;
53931;SDS011;39844;52.496;13.482;2023-09-30T13:15:51;4.50;;;1.33;;
53931;SDS011;39844;52.496;13.482;2023-09-30T13:18:16;1.65;;;1.08;;
53931;SDS011;39844;52.496;13.482;2023-09-30T13:20:42;2.88;;;1.30;;
53931;SDS011;39844;52.496;13.482;2023-09-30T13:23:07;2.03;;;1.20;;
53931;SDS011;39844;52.496;13.482;2023-09-30T13:25:32;2.28;;;1.17;;
53931;SDS011;39844;52.496;13.482;2023-09-30T13:27:57;4.68;;;1.73;;
53931;SDS011;39844;52.496;13.482;2023-09-30T13:30:23;3.83;;;1.20;;
53931;SDS011;39844;52.496;13.482;2023-09-30T13:32:48;1.58;;;1.17;;
53931;SDS011;39844;52.496;13.482;2023-09-30T13:35:13;1.20;;;0.90;;
53931;SDS011;39844;52.496;13.482;2023-09-30T13:37:39;1.75;;;0.90;;
53931;SDS011;39844;52.496;13.482;2023-09-30T13:40:04;1.95;;;0.93;;
53931;SDS011;39844;52.496;13.482;2023-09-30T13:42:30;3.72;;;1.30;;
53931;SDS011;39844;52.496;13.482;2023-09-30T13:44:55;1.00;;;0.90;;
53931;SDS011;39844;52.496;13.482;2023-09-30T13:47:21;2.17;;;1.20;;
53931;SDS011;39844;52.496;13.482;2023-09-30T13:49:46;2.42;;;1.00;;
53931;SDS011;39844;52.496;13.482;2023-09-30T13:52:11;3.03;;;1.10;;
53931;SDS011;39844;52.496;13.482;2023-09-30T13:54:37;4.55;;;1.55;;
53931;SDS011;39844;52.496;13.482;2023-09-30T13:57:02;2.92;;;1.02;;
53931;SDS011;39844;52.496;13.482;2023-09-30T13:59:27;2.92;;;1.35;;
53931;SDS011;39844;52.496;13.482;2023-09-30T14:01:53;3.83;;;1.20;;
53931;SDS011;39844;52.496;13.482;2023-09-30T14:04:18;4.85;;;1.10;;
53931;SDS011;39844;52.496;13.482;2023-09-30T14:06:43;2.65;;;1.58;;
53931;SDS011;39844;52.496;13.482;2023-09-30T14:09:08;3.35;;;1.05;;
53931;SDS011;39844;52.496;13.482;2023-09-30T14:14:08;5.05;;;1.00;;
53931;SDS011;39844;52.496;13.482;2023-09-30T14:16:34;2.88;;;1.00;;
53931;SDS011;39844;52.496;13.482;2023-09-30T14:18:59;2.38;;;0.88;;
53931;SDS011;39844;52.496;13.482;2023-09-30T14:21:24;1.92;;;1.20;;
53931;SDS011;39844;52.496;13.482;2023-09-30T14:23:49;3.15;;;1.13;;
53931;SDS011;39844;52.496;13.482;2023-09-30T14:26:15;2.70;;;1.00;;
53931;SDS011;39844;52.496;13.482;2023-09-30T14:28:40;3.55;;;1.13;;
53931;SDS011;39844;52.496;13.482;2023-09-30T14:31:05;5.22;;;1.00;;
53931;SDS011;39844;52.496;13.482;2023-09-30T14:33:31;2.10;;;0.95;;
53931;SDS011;39844;52.496;13.482;2023-09-30T14:35:56;2.10;;;1.10;;
53931;SDS011;39844;52.496;13.482;2023-09-30T14:38:21;5.00;;;1.05;;
53931;SDS011;39844;52.496;13.482;2023-09-30T14:40:47;2.22;;;1.15;;
53931;SDS011;39844;52.496;13.482;2023-09-30T14:43:12;3.03;;;0.90;;
53931;SDS011;39844;52.496;13.482;2023-09-30T14:45:38;1.10;;;1.00;;
53931;SDS011;39844;52.496;13.482;2023-09-30T14:48:04;1.75;;;0.90;;
53931;SDS011;39844;52.496;13.482;2023-09-30T14:50:31;2.88;;;0.80;;